Time;durP1;ratioP1;P1;durP2;ratioP2;P2;SDS_P1;SDS_P2;PMS_P1;PMS_P2;Temp;Humidity;BMP_temperature;BMP_pressure;BME280_temperature;BME280_humidity;BME280_pressure;Samples;Min_cycle;Max_cycle;Signal;HPM_P1;HPM_P2
2022/05/26 00:01:30;;;;;;;6.80;2.10;;;;;;;17.66;52.11;100723.73;108632;1250;71664;-79
2022/05/26 00:03:59;;;;;;;7.30;2.10;;;;;;;17.61;52.97;100720.52;108458;1250;69553;-79
2022/05/26 00:06:29;;;;;;;3.20;2.00;;;;;;;17.60;52.94;100722.20;108271;1249;67930;-80
2022/05/26 00:08:59;;;;;;;5.30;2.20;;;;;;;17.56;53.14;100712.96;108038;1250;71172;-82
2022/05/26 00:11:35;;;;;;;4.40;2.00;;;;;;;17.53;53.23;100709.21;107827;1250;59544;-80
2022/05/26 00:14:09;;;;;;;3.90;2.20;;;;;;;17.50;53.24;100712.85;107684;1250;60478;-81
2022/05/26 00:16:45;;;;;;;6.60;2.00;;;;;;;17.43;53.61;100711.79;107679;1249;72069;-81
2022/05/26 00:19:18;;;;;;;4.90;2.40;;;;;;;17.41;53.61;100717.42;107504;1250;70341;-83
2022/05/26 00:21:49;;;;;;;;;;;;;;;17.39;53.71;100722.02;107462;1250;67901;-81
2022/05/26 00:24:19;;;;;;;5.40;1.90;;;;;;;17.38;53.42;100715.83;107490;1249;72841;-83
2022/05/26 00:26:48;;;;;;;3.90;2.00;;;;;;;17.36;53.89;100709.27;107517;1248;59998;-82
2022/05/26 00:29:17;;;;;;;8.60;2.50;;;;;;;17.39;53.83;100713.61;107489;1249;59128;-82
2022/05/26 00:31:46;;;;;;;5.50;2.20;;;;;;;17.36;53.84;100719.89;107442;1250;71707;-80
2022/05/26 00:34:15;;;;;;;4.30;2.50;;;;;;;17.34;54.00;100722.19;107518;1250;69595;-82
2022/05/26 00:36:44;;;;;;;4.60;2.30;;;;;;;17.34;53.87;100726.77;107528;1249;69743;-82
2022/05/26 00:39:22;;;;;;;6.80;1.90;;;;;;;17.32;54.25;100731.59;107546;1248;72714;-81
2022/05/26 00:42:01;;;;;;;6.90;3.40;;;;;;;17.31;54.11;100731.48;107567;1249;60607;-81
2022/05/26 00:44:31;;;;;;;6.60;2.20;;;;;;;17.26;53.94;100733.05;107520;1248;60675;-85
2022/05/26 00:47:11;;;;;;;4.60;2.30;;;;;;;17.21;54.11;100731.93;107435;1249;71991;-77
2022/05/26 00:49:50;;;;;;;4.00;2.20;;;;;;;17.15;54.18;100729.22;107505;1250;69570;-77
2022/05/26 00:52:49;;;;;;;4.80;2.30;;;;;;;17.15;54.28;100725.63;107475;1248;68681;-77
2022/05/26 00:55:43;;;;;;;4.90;2.10;;;;;;;17.13;54.13;100729.06;107536;1250;74422;-78
2022/05/26 00:58:24;;;;;;;5.40;2.10;;;;;;;17.09;54.42;100730.52;107858;1250;60614;-80
2022/05/26 01:00:56;;;;;;;5.20;2.10;;;;;;;17.07;54.52;100725.19;107980;1249;59085;-78
2022/05/26 01:03:47;;;;;;;6.50;2.10;;;;;;;17.03;54.54;100721.03;108567;1249;72757;-81
2022/05/26 01:06:32;;;;;;;2.90;2.00;;;;;;;17.06;54.45;100717.19;108392;1250;71850;-81
2022/05/26 01:09:05;;;;;;;6.90;2.10;;;;;;;17.07;54.53;100714.46;107917;1250;68569;-80
2022/05/26 01:11:38;;;;;;;4.90;2.10;;;;;;;17.04;54.56;100713.75;107786;1250;73800;-79
2022/05/26 01:14:25;;;;;;;3.50;2.10;;;;;;;17.03;54.71;100710.84;107472;1250;61871;-82
2022/05/26 01:17:39;;;;;;;4.40;2.00;;;;;;;17.02;54.60;100708.36;107373;1250;60141;-81
2022/05/26 01:20:43;;;;;;;4.40;2.00;;;;;;;17.00;54.62;100715.92;107367;1250;73561;-79
2022/05/26 01:24:01;;;;;;;4.60;2.00;;;;;;;16.97;54.64;100720.39;107409;1250;71866;-83
2022/05/26 01:26:58;;;;;;;3.60;2.00;;;;;;;16.93;54.79;100717.33;107162;1253;68782;-80
2022/05/26 01:30:07;;;;;;;4.30;2.10;;;;;;;16.87;55.07;100718.91;107077;1253;73052;-81
2022/05/26 01:32:51;;;;;;;6.50;2.10;;;;;;;16.89;54.94;100729.52;107477;1250;60078;-80
2022/05/26 01:35:55;;;;;;;5.00;2.00;;;;;;;16.86;55.06;100744.87;107433;1249;60059;-80
2022/05/26 01:38:57;;;;;;;3.90;2.20;;;;;;;16.85;55.43;100749.94;107431;1250;72492;-81
2022/05/26 01:42:04;;;;;;;5.90;2.20;;;;;;;16.82;55.72;100748.80;107434;1250;70342;-82
2022/05/26 01:45:02;;;;;;;4.30;2.30;;;;;;;16.81;55.90;100746.33;107323;1250;67909;-83
2022/05/26 01:47:58;;;;;;;4.10;2.10;;;;;;;16.80;56.09;100750.05;107327;1250;73877;-82
2022/05/26 01:50:30;;;;;;;5.30;2.20;;;;;;;16.81;55.94;100748.58;107366;1250;61788;-81
2022/05/26 01:53:17;;;;;;;5.40;2.40;;;;;;;16.81;56.18;100744.91;107178;1250;61080;-82
2022/05/26 01:55:56;;;;;;;7.70;2.40;;;;;;;16.80;56.26;100739.89;107110;1250;73193;-82
2022/05/26 01:58:42;;;;;;;4.60;2.00;;;;;;;16.84;55.88;100744.55;107302;1250;70819;-81
2022/05/26 02:01:32;;;;;;;4.20;2.10;;;;;;;16.87;56.00;100741.11;107612;1250;70658;-81
2022/05/26 02:04:06;;;;;;;4.20;2.20;;;;;;;16.88;55.97;100752.10;109234;1249;71845;-82
2022/05/26 02:06:42;;;;;;;6.20;2.40;;;;;;;16.90;56.12;100755.72;107899;1250;60461;-85
2022/05/26 02:09:21;;;;;;;5.30;2.30;;;;;;;16.90;56.37;100759.44;107448;1250;60159;-83
2022/05/26 02:12:04;;;;;;;4.20;2.30;;;;;;;16.90;56.57;100768.48;107275;1248;74019;-84
2022/05/26 02:14:45;;;;;;;6.30;2.40;;;;;;;16.89;56.50;100771.00;107287;1250;72672;-82
2022/05/26 02:17:30;;;;;;;4.90;2.60;;;;;;;16.91;56.57;100780.48;107174;1253;69295;-84
2022/05/26 02:20:13;;;;;;;8.00;2.60;;;;;;;16.91;56.35;100781.71;107223;1250;72327;-85
2022/05/26 02:22:57;;;;;;;6.20;2.70;;;;;;;16.86;56.38;100773.62;107238;1250;62067;-85
2022/05/26 02:25:28;;;;;;;4.80;2.20;;;;;;;16.78;57.83;100778.25;107660;1250;60807;-80
2022/05/26 02:27:58;;;;;;;5.10;2.10;;;;;;;16.72;58.20;100791.34;107446;1250;74213;-79
2022/05/26 02:30:36;;;;;;;8.10;2.30;;;;;;;16.70;58.45;100796.36;107794;1249;71824;-81
2022/05/26 02:33:08;;;;;;;3.50;2.30;;;;;;;16.72;57.76;100817.18;107645;1249;69420;-81
2022/05/26 02:35:41;;;;;;;4.40;2.70;;;;;;;16.71;58.45;100815.13;107462;1250;72397;-81
2022/05/26 02:38:21;;;;;;;6.70;2.30;;;;;;;16.68;58.63;100817.15;107523;1248;59135;-78
2022/05/26 02:40:52;;;;;;;9.40;3.10;;;;;;;16.69;59.34;100820.01;107487;1250;60474;-78
2022/05/26 02:43:30;;;;;;;3.80;2.20;;;;;;;16.70;58.79;100842.11;107352;1250;73793;-79
2022/05/26 02:46:36;;;;;;;4.70;3.80;;;;;;;16.69;58.72;100852.56;106968;1253;71238;-78
2022/05/26 02:49:05;;;;;;;7.30;2.60;;;;;;;16.59;60.72;100856.73;106902;1250;70366;-80
2022/05/26 02:51:58;;;;;;;6.40;2.90;;;;;;;16.56;63.45;100861.59;107034;1250;74565;-79
2022/05/26 02:54:42;;;;;;;8.60;2.90;;;;;;;16.53;61.79;100879.23;107020;1250;61002;-82
2022/05/26 02:57:33;;;;;;;5.30;3.20;;;;;;;16.43;63.97;100878.81;107177;1250;59784;-80
2022/05/26 03:00:19;;;;;;;34.30;3.20;;;;;;;16.37;65.16;100884.25;107131;1250;70922;-80
2022/05/26 03:02:59;;;;;;;6.10;2.80;;;;;;;16.25;67.55;100883.77;107135;1251;69573;-82
2022/05/26 03:05:41;;;;;;;6.10;3.40;;;;;;;16.21;68.29;100889.29;107213;1250;67871;-85
2022/05/26 03:08:15;;;;;;;6.60;3.70;;;;;;;16.14;69.47;100896.64;107184;1249;74014;-83
2022/05/26 03:10:52;;;;;;;5.40;3.00;;;;;;;16.11;67.45;100905.54;107099;1249;63863;-79
2022/05/26 03:13:21;;;;;;;5.50;3.30;;;;;;;16.04;65.74;100896.10;107222;1250;60206;-80
2022/05/26 03:15:52;;;;;;;6.20;3.40;;;;;;;15.91;67.79;100886.21;107300;1249;72132;-80
2022/05/26 03:18:21;;;;;;;5.70;3.30;;;;;;;15.77;67.07;100880.21;108492;1250;72359;-77
2022/05/26 03:20:50;;;;;;;6.80;3.90;;;;;;;15.54;71.85;100887.30;108399;1249;67919;-79
2022/05/26 03:23:19;;;;;;;6.90;4.00;;;;;;;15.38;70.03;100886.48;107835;1250;73339;-79
2022/05/26 03:25:48;;;;;;;8.80;4.40;;;;;;;15.20;71.71;100881.59;107517;1250;63359;-77
2022/05/26 03:28:16;;;;;;;6.80;4.00;;;;;;;15.05;76.63;100873.95;107434;1250;61865;-84
2022/05/26 03:30:45;;;;;;;9.90;4.90;;;;;;;14.98;77.93;100871.13;107359;1251;71260;-76
2022/05/26 03:33:14;;;;;;;11.60;4.70;;;;;;;14.92;75.66;100871.48;107178;1250;70382;-73
2022/05/26 03:41:21;;;;;;;10.90;5.50;;;;;;;14.63;78.32;100901.86;107211;1250;61271;-73
2022/05/26 03:43:57;;;;;;;10.50;5.90;;;;;;;14.47;79.03;100905.14;107182;1250;61724;-75
2022/05/26 03:46:28;;;;;;;11.90;5.80;;;;;;;14.41;80.27;100912.46;107366;1250;72116;-71
2022/05/26 03:48:57;;;;;;;15.20;7.10;;;;;;;14.42;80.18;100920.28;107347;1248;72269;-65
2022/05/26 03:51:26;;;;;;;16.60;8.00;;;;;;;14.47;85.86;100927.04;107123;1249;70976;-66
2022/05/26 03:53:55;;;;;;;11.80;5.50;;;;;;;14.49;84.63;100938.10;107187;1250;73976;-66
2022/05/26 03:56:24;;;;;;;14.20;6.70;;;;;;;14.57;83.31;100949.02;107199;1250;61067;-65
2022/05/26 03:58:53;;;;;;;11.90;5.90;;;;;;;14.60;83.53;100956.13;107368;1250;58981;-67
2022/05/26 04:01:22;;;;;;;11.70;6.80;;;;;;;14.67;85.49;100965.38;107181;1250;74279;-69
2022/05/26 04:03:51;;;;;;;15.30;8.30;;;;;;;14.73;86.80;100970.77;107418;1249;69938;-64
2022/05/26 04:06:20;;;;;;;14.90;8.30;;;;;;;14.79;87.33;100976.19;107429;1249;67934;-65
2022/05/26 04:08:50;;;;;;;15.50;9.00;;;;;;;14.88;87.01;100976.02;107286;1248;73925;-65
2022/05/26 04:11:18;;;;;;;14.50;8.70;;;;;;;14.97;87.09;100979.27;107403;1247;62495;-69
2022/05/26 04:13:47;;;;;;;13.20;9.10;;;;;;;15.01;87.14;100976.75;107399;1250;59571;-65
2022/05/26 04:16:16;;;;;;;15.70;9.30;;;;;;;15.04;85.89;100971.92;107462;1248;72132;-66
2022/05/26 04:18:45;;;;;;;16.10;9.50;;;;;;;15.10;86.23;100972.27;107384;1250;69856;-66
2022/05/26 04:21:14;;;;;;;14.70;8.90;;;;;;;15.14;88.81;100971.98;107354;1250;67989;-73
2022/05/26 04:23:43;;;;;;;14.20;10.00;;;;;;;15.20;86.36;100973.52;107263;1248;73098;-65
2022/05/26 04:26:12;;;;;;;25.90;11.50;;;;;;;15.26;85.56;100975.66;107256;1250;61087;-71
2022/05/26 04:28:41;;;;;;;14.70;10.10;;;;;;;15.31;87.01;100975.35;107102;1250;59685;-71
2022/05/26 04:31:10;;;;;;;13.50;9.20;;;;;;;15.38;86.77;100976.14;107246;1248;74678;-71
2022/05/26 04:33:38;;;;;;;14.20;9.70;;;;;;;15.43;87.96;100979.73;107310;1249;73094;-73
2022/05/26 04:36:07;;;;;;;15.20;11.20;;;;;;;15.51;88.49;100983.81;107332;1250;70131;-72
2022/05/26 04:38:36;;;;;;;15.60;11.50;;;;;;;15.63;89.84;100982.58;107176;1250;71952;-69
2022/05/26 04:41:07;;;;;;;13.00;10.30;;;;;;;15.65;90.96;100984.65;107302;1250;61587;-70
2022/05/26 04:43:36;;;;;;;11.20;9.90;;;;;;;15.67;89.97;100983.30;107053;1250;60403;-72
2022/05/26 04:46:05;;;;;;;12.30;10.30;;;;;;;15.64;89.38;100984.27;107145;1250;74032;-70
2022/05/26 04:48:34;;;;;;;13.10;10.00;;;;;;;15.60;88.97;100982.78;107222;1247;71965;-60
2022/05/26 04:51:03;;;;;;;9.30;7.90;;;;;;;15.59;88.63;100984.65;107256;1247;71465;-64
2022/05/26 04:53:32;;;;;;;9.70;8.70;;;;;;;15.60;88.46;100982.64;107213;1247;74788;-63
2022/05/26 04:56:01;;;;;;;9.40;8.40;;;;;;;15.61;88.61;100979.95;107250;1250;61010;-61
2022/05/26 04:58:30;;;;;;;9.70;8.50;;;;;;;15.63;88.20;100981.11;107281;1247;59217;-62
2022/05/26 05:00:59;;;;;;;10.20;9.20;;;;;;;15.64;88.12;100974.04;107182;1248;74308;-64
2022/05/26 05:03:27;;;;;;;8.80;7.70;;;;;;;15.65;87.74;100974.49;107249;1248;73079;-63
2022/05/26 05:05:56;;;;;;;7.00;6.20;;;;;;;15.66;86.87;100972.84;107268;1248;70562;-66
2022/05/26 05:08:25;;;;;;;6.80;6.00;;;;;;;15.66;86.04;100968.79;107282;1249;72222;-67
2022/05/26 05:10:54;;;;;;;6.80;5.50;;;;;;;15.70;85.59;100969.52;107278;1250;60642;-62
2022/05/26 05:13:24;;;;;;;5.10;4.60;;;;;;;15.70;84.93;100972.70;107333;1249;59569;-61
2022/05/26 05:16:11;;;;;;;12.50;5.10;;;;;;;15.71;83.92;100971.15;107345;1250;73961;-63
2022/05/26 05:18:40;;;;;;;7.90;4.00;;;;;;;15.73;83.67;100963.95;107716;1249;73150;-63
2022/05/26 05:21:15;;;;;;;14.10;4.50;;;;;;;15.81;82.99;100969.05;107363;1250;70350;-64
2022/05/26 05:23:48;;;;;;;10.30;4.60;;;;;;;15.85;82.86;100974.16;107990;1249;73507;-67
2022/05/26 05:26:22;;;;;;;14.50;4.70;;;;;;;15.94;82.34;100984.52;107459;1249;61515;-66
2022/05/26 05:29:03;;;;;;;8.80;4.10;;;;;;;15.93;82.05;100985.82;107511;1250;60370;-64
2022/05/26 05:32:02;;;;;;;11.70;5.00;;;;;;;15.89;82.43;100988.28;107330;1250;72714;-67
2022/05/26 05:34:38;;;;;;;35.80;7.10;;;;;;;15.83;82.75;100992.00;107306;1250;72640;-66
2022/05/26 05:37:10;;;;;;;36.60;6.90;;;;;;;15.89;82.65;100992.54;107399;1250;68625;-63
2022/05/26 05:39:39;;;;;;;9.10;4.50;;;;;;;15.73;83.38;101005.39;107271;1250;71948;-62
2022/05/26 05:43:48;;;;;;;20.90;5.90;;;;;;;15.86;82.68;101010.50;104265;1283;602563;-64
2022/05/26 05:46:19;;;;;;;26.80;6.80;;;;;;;15.91;81.16;101024.81;106859;1253;62029;-64
2022/05/26 05:48:49;;;;;;;6.80;5.50;;;;;;;15.87;80.45;101009.23;106819;1257;59211;-79
2022/05/26 05:51:18;;;;;;;8.60;5.50;;;;;;;15.64;80.32;101012.78;107222;1256;70764;-80
2022/05/26 05:53:46;;;;;;;12.80;6.30;;;;;;;15.64;80.09;101010.55;106722;1257;70801;-78
2022/05/26 05:56:16;;;;;;;7.50;6.10;;;;;;;15.57;80.28;101024.70;105955;1256;810818;-78
2022/05/26 05:58:45;;;;;;;43.10;9.10;;;;;;;15.61;80.01;101029.59;107009;1253;73940;-78
2022/05/26 06:01:13;;;;;;;26.90;7.20;;;;;;;15.57;80.52;101031.83;106811;1254;62607;-73
2022/05/26 06:03:42;;;;;;;8.90;6.80;;;;;;;15.63;79.84;101028.42;107055;1253;59233;-77
2022/05/26 06:06:14;;;;;;;18.80;7.10;;;;;;;15.63;79.53;101040.34;107119;1254;70050;-80
2022/05/26 06:08:42;;;;;;;12.30;6.80;;;;;;;15.61;79.42;101045.55;107090;1253;71954;-78
2022/05/26 06:11:11;;;;;;;13.90;6.50;;;;;;;15.68;79.45;101040.05;106929;1253;69132;-75
2022/05/26 06:13:41;;;;;;;9.20;6.40;;;;;;;15.76;78.79;101043.73;106718;1254;71233;-79
2022/05/26 06:16:11;;;;;;;9.70;5.70;;;;;;;15.82;78.33;101046.77;106939;1253;62201;-78
2022/05/26 06:18:40;;;;;;;9.40;5.70;;;;;;;15.89;78.00;101046.11;106885;1254;61774;-77
2022/05/26 06:21:08;;;;;;;23.80;6.70;;;;;;;15.99;77.41;101047.48;107104;1253;72764;-78
2022/05/26 06:23:37;;;;;;;6.50;5.00;;;;;;;16.15;76.92;101061.35;107080;1253;69693;-77
2022/05/26 06:26:06;;;;;;;7.30;5.00;;;;;;;16.19;76.72;101062.21;107130;1254;69750;-78
2022/05/26 06:31:23;;;;;;;9.80;5.00;;;;;;;15.98;77.01;101067.58;107225;1253;62363;-77
2022/05/26 06:39:11;;;;;;;;;;;;;;;16.06;76.60;101069.34;107003;1253;71982;-81
2022/05/26 06:44:30;;;;;;;9.20;4.50;;;;;;;16.02;76.64;101092.83;107039;1254;70249;-79
2022/05/26 06:46:59;;;;;;;5.70;4.10;;;;;;;16.00;76.60;101095.52;107152;1253;63197;-79
2022/05/26 06:49:27;;;;;;;7.60;4.40;;;;;;;15.97;76.80;101100.51;107180;1253;59999;-75
2022/05/26 06:51:56;;;;;;;3.90;3.50;;;;;;;16.01;76.68;101100.71;107208;1253;71291;-81
2022/05/26 06:54:26;;;;;;;4.20;3.60;;;;;;;16.05;76.22;101104.96;106855;1254;70846;-81
2022/05/26 06:56:54;;;;;;;4.70;4.10;;;;;;;16.02;76.56;101108.00;107143;1253;71418;-81
2022/05/26 06:59:23;;;;;;;5.40;3.90;;;;;;;16.03;77.16;101114.58;106878;1255;72387;-76
2022/05/26 07:01:55;;;;;;;7.30;3.80;;;;;;;16.15;76.38;101122.12;107137;1253;61228;-75
2022/05/26 07:04:25;;;;;;;6.80;4.20;;;;;;;16.14;75.44;101126.74;106918;1253;60699;-79
2022/05/26 07:06:54;;;;;;;5.30;3.60;;;;;;;16.19;75.16;101134.39;107024;1253;72445;-76
2022/05/26 07:09:25;;;;;;;5.80;3.60;;;;;;;16.14;74.84;101136.78;107039;1254;71164;-79
2022/05/26 07:11:54;;;;;;;4.70;4.00;;;;;;;16.16;74.62;101142.76;107026;1253;70260;-79
2022/05/26 07:14:24;;;;;;;4.70;4.00;;;;;;;16.06;75.06;101146.63;107142;1254;71918;-81
2022/05/26 07:16:52;;;;;;;10.70;4.10;;;;;;;16.06;75.23;101148.34;106978;1254;63104;-80
2022/05/26 07:19:23;;;;;;;4.80;3.90;;;;;;;16.02;75.18;101153.17;107096;1254;60089;-82
2022/05/26 07:21:51;;;;;;;6.30;4.10;;;;;;;16.12;74.48;101153.65;107229;1253;72901;-77
2022/05/26 07:24:24;;;;;;;3.80;3.40;;;;;;;16.06;74.61;101163.30;106978;1254;70312;-80
2022/05/26 07:26:53;;;;;;;21.80;5.10;;;;;;;16.08;74.92;101156.50;107055;1253;68782;-82
2022/05/26 07:29:23;;;;;;;7.30;4.00;;;;;;;16.09;75.07;101159.52;107146;1253;71942;-80
2022/05/26 07:31:52;;;;;;;6.10;3.60;;;;;;;16.18;74.55;101170.14;107118;1253;61713;-83
2022/05/26 07:34:21;;;;;;;5.30;4.00;;;;;;;16.23;74.11;101169.40;107150;1253;61115;-82
2022/05/26 07:42:31;;;;;;;5.70;4.00;;;;;;;16.19;74.10;101175.23;107249;1254;67972;-79
2022/05/26 07:45:03;;;;;;;5.30;4.40;;;;;;;16.43;73.53;101178.81;107082;1254;71989;-80
2022/05/26 07:47:32;;;;;;;4.30;3.60;;;;;;;16.62;72.73;101184.18;107050;1253;62928;-81
2022/05/26 07:50:11;;;;;;;5.80;3.20;;;;;;;16.87;71.95;101182.20;107022;1253;60905;-83
2022/05/26 07:52:42;;;;;;;5.90;3.60;;;;;;;16.97;70.95;101190.70;106839;1253;70747;-80
2022/05/26 07:55:32;;;;;;;4.10;3.60;;;;;;;16.91;70.62;101196.09;107112;1253;70535;-81
2022/05/26 07:58:05;;;;;;;6.40;3.60;;;;;;;16.91;70.46;101194.20;106808;1253;70908;-80
2022/05/26 08:00:34;;;;;;;4.90;3.30;;;;;;;16.95;70.28;101189.48;106961;1253;74253;-80
2022/05/26 08:03:04;;;;;;;5.40;3.50;;;;;;;16.82;70.28;101197.67;106946;1253;63811;-82
2022/05/26 08:05:34;;;;;;;9.20;3.50;;;;;;;16.93;69.92;101195.23;106972;1253;59770;-79
2022/05/26 08:08:04;;;;;;;6.40;3.70;;;;;;;17.03;69.72;101201.38;106834;1255;70872;-83
2022/05/26 08:10:34;;;;;;;4.40;3.20;;;;;;;17.12;68.22;101203.92;106850;1255;70501;-83
2022/05/26 08:13:06;;;;;;;4.80;3.60;;;;;;;17.06;67.69;101205.33;106954;1254;70716;-80
2022/05/26 08:15:35;;;;;;;9.60;3.70;;;;;;;17.11;68.39;101211.15;107095;1253;72980;-80
2022/05/26 08:18:04;;;;;;;163.40;23.30;;;;;;;17.35;68.20;101223.07;106798;1254;62500;-80
2022/05/26 08:20:34;;;;;;;9.70;4.30;;;;;;;17.53;66.93;101218.55;106923;1254;61780;-76
2022/05/26 08:23:05;;;;;;;6.70;3.50;;;;;;;17.66;65.64;101225.77;107014;1253;72340;-83
2022/05/26 08:25:34;;;;;;;6.90;3.60;;;;;;;17.76;64.62;101226.05;107160;1253;70992;-82
2022/05/26 08:28:04;;;;;;;4.00;3.60;;;;;;;17.84;63.55;101219.87;107176;1253;59193;-84
2022/05/26 08:30:37;;;;;;;3.40;3.00;;;;;;;17.77;63.43;101217.70;107248;1253;73741;-81
2022/05/26 08:33:06;;;;;;;4.10;3.20;;;;;;;17.65;63.97;101213.77;107119;1255;59683;-81
2022/05/26 08:35:36;;;;;;;3.80;3.10;;;;;;;17.86;63.94;101211.61;107211;1254;59806;-80
2022/05/26 08:38:05;;;;;;;5.30;2.90;;;;;;;17.97;63.33;101203.52;107100;1253;70333;-81
2022/05/26 08:40:48;;;;;;;3.80;3.10;;;;;;;18.15;63.15;101208.83;107154;1253;73769;-82
2022/05/26 08:43:26;;;;;;;5.20;3.40;;;;;;;18.31;62.91;101213.77;107184;1253;70214;-79
2022/05/26 08:45:55;;;;;;;5.90;4.20;;;;;;;18.37;62.12;101226.73;107023;1253;73131;-82
2022/05/26 08:48:54;;;;;;;5.00;3.80;;;;;;;18.48;62.15;101217.94;107308;1250;60791;-79
2022/05/26 08:51:51;;;;;;;4.60;3.70;;;;;;;18.69;61.16;101214.29;106981;1253;59123;-79
2022/05/26 08:54:58;;;;;;;4.10;3.30;;;;;;;18.70;60.36;101219.13;107326;1253;62019;-80
2022/05/26 08:58:04;;;;;;;4.60;3.60;;;;;;;18.71;60.50;101213.17;107259;1251;60887;-80
2022/05/26 09:00:37;;;;;;;3.60;3.00;;;;;;;19.14;59.70;101212.61;107375;1250;60067;-79
2022/05/26 09:03:35;;;;;;;7.70;3.60;;;;;;;19.46;57.56;101210.43;107207;1251;73626;-78
2022/05/26 09:12:55;;;;;;;6.00;3.20;;;;;;;19.43;57.04;101205.86;107501;1250;58980;-79
2022/05/26 09:15:10;;;;;;;6.60;3.00;;;;;;;19.41;56.83;101217.00;107085;1253;72581;-80
2022/05/26 09:17:40;;;;;;;12.40;4.20;;;;;;;19.48;56.66;101214.31;106986;1253;71292;-81
2022/05/26 09:20:44;;;;;;;83.20;12.60;;;;;;;19.51;56.20;101217.21;106899;1254;63828;-77
2022/05/26 09:23:25;;;;;;;41.00;5.30;;;;;;;19.48;55.22;101218.84;106566;1253;61678;-74
2022/05/26 09:26:20;;;;;;;4.00;3.10;;;;;;;19.46;54.65;101216.81;107103;1254;58951;-77
2022/05/26 09:28:54;;;;;;;3.40;2.60;;;;;;;19.53;54.75;101208.70;107073;1253;72015;-77
2022/05/26 09:31:44;;;;;;;4.30;2.70;;;;;;;19.69;54.14;101212.49;107001;1253;72693;-76
2022/05/26 09:34:26;;;;;;;3.00;2.70;;;;;;;19.72;54.48;101218.17;106747;1253;71158;-77
2022/05/26 09:37:04;;;;;;;5.30;3.00;;;;;;;19.70;54.44;101212.99;106891;1253;73413;-75
2022/05/26 09:39:42;;;;;;;4.50;2.80;;;;;;;19.65;54.57;101214.14;106969;1252;59115;-78
2022/05/26 09:42:17;;;;;;;7.30;2.80;;;;;;;19.66;54.35;101212.98;107071;1253;58235;-77
2022/05/26 09:45:13;;;;;;;7.10;2.60;;;;;;;19.83;53.49;101209.85;107197;1253;72823;-78
2022/05/26 09:47:54;;;;;;;2.80;2.30;;;;;;;19.94;52.49;101210.33;107184;1253;62797;-78
2022/05/26 09:50:45;;;;;;;7.50;3.20;;;;;;;20.01;51.48;101205.80;107186;1253;59205;-79
2022/05/26 09:53:31;;;;;;;6.30;2.50;;;;;;;20.01;51.67;101206.17;107117;1253;73818;-81
2022/05/26 09:56:02;;;;;;;5.00;2.20;;;;;;;20.25;51.39;101204.07;106948;1253;59079;-81
2022/05/26 09:58:39;;;;;;;34.70;5.00;;;;;;;20.44;50.91;101201.66;106931;1254;61445;-78
2022/05/26 10:01:48;;;;;;;22.70;2.70;;;;;;;20.58;50.34;101196.96;106924;1255;61902;-77
2022/05/26 10:04:36;;;;;;;65.30;8.90;;;;;;;20.71;48.47;101197.94;107221;1252;60756;-79
2022/05/26 10:07:25;;;;;;;4.60;2.30;;;;;;;20.61;47.71;101195.66;107115;1253;70145;-81
2022/05/26 10:10:33;;;;;;;150.50;18.20;;;;;;;20.73;47.29;101196.43;107099;1252;73484;-80
2022/05/26 10:13:38;;;;;;;79.40;10.70;;;;;;;20.85;47.64;101192.48;107057;1253;58532;-82
2022/05/26 10:16:41;;;;;;;132.20;13.30;;;;;;;21.00;47.55;101203.77;107113;1253;60876;-80
2022/05/26 10:19:58;;;;;;;309.60;38.90;;;;;;;21.21;47.54;101194.09;106990;1253;62695;-80
2022/05/26 10:23:19;;;;;;;27.40;5.20;;;;;;;21.42;47.06;101190.33;107199;1253;72247;-82
2022/05/26 10:26:31;;;;;;;102.60;14.30;;;;;;;21.77;45.90;101191.04;107235;1253;70875;-80
2022/05/26 10:29:48;;;;;;;274.90;53.30;;;;;;;21.83;45.15;101190.80;107185;1253;72948;-79
2022/05/26 10:32:33;;;;;;;100.30;12.90;;;;;;;21.98;45.21;101186.16;107187;1253;58646;-80
2022/05/26 10:35:20;;;;;;;17.00;3.90;;;;;;;22.20;44.92;101186.63;107169;1253;57840;-81
2022/05/26 10:38:22;;;;;;;44.30;6.60;;;;;;;22.47;44.96;101192.49;107162;1253;74646;-79
2022/05/26 10:41:22;;;;;;;8.80;3.10;;;;;;;22.70;43.66;101192.83;107208;1253;72419;-83
2022/05/26 10:44:19;;;;;;;6.30;2.80;;;;;;;22.73;43.28;101196.50;106995;1253;61274;-82
2022/05/26 10:47:31;;;;;;;103.60;14.40;;;;;;;22.80;44.09;101187.77;107318;1253;62614;-84
2022/05/26 10:50:25;;;;;;;96.50;11.60;;;;;;;23.05;43.91;101186.31;107210;1253;58456;-80
2022/05/26 10:53:23;;;;;;;8.70;3.00;;;;;;;23.39;43.46;101195.39;106797;1253;58877;-80
2022/05/26 10:56:06;;;;;;;971.90;189.50;;;;;;;23.66;41.91;101194.23;107130;1253;62987;-80
2022/05/26 10:58:54;;;;;;;18.10;3.00;;;;;;;23.91;41.40;101193.69;107004;1253;62724;-78
2022/05/26 11:01:32;;;;;;;1000.70;162.40;;;;;;;24.10;40.88;101200.36;107005;1253;59855;-80
2022/05/26 11:04:48;;;;;;;217.10;26.30;;;;;;;24.04;40.64;101197.80;107141;1253;63332;-82
2022/05/26 11:07:36;;;;;;;294.80;32.60;;;;;;;24.15;39.83;101190.48;107141;1253;60593;-82
2022/05/26 11:10:24;;;;;;;65.00;8.10;;;;;;;24.11;40.17;101193.77;107004;1254;59092;-78
2022/05/26 11:13:15;;;;;;;198.00;26.30;;;;;;;24.30;39.16;101194.61;107159;1253;71344;-75
2022/05/26 11:19:20;;;;;;;77.90;8.70;;;;;;;24.69;38.58;101180.73;106814;1254;70491;-82
2022/05/26 11:21:53;;;;;;;4.40;2.10;;;;;;;24.68;37.30;101182.65;106907;1253;63881;-83
2022/05/26 11:24:23;;;;;;;7.30;2.30;;;;;;;24.83;37.60;101178.08;107057;1253;61281;-81
2022/05/26 11:27:06;;;;;;;225.90;29.50;;;;;;;25.03;37.20;101178.20;107043;1253;61768;-80
2022/05/26 11:29:56;;;;;;;7.80;2.70;;;;;;;25.20;36.96;101174.10;106926;1253;73376;-81
2022/05/26 11:36:11;;;;;;;6.20;1.70;;;;;;;24.83;35.83;101173.64;107132;1253;72227;-80
2022/05/26 11:38:49;;;;;;;11.40;2.30;;;;;;;24.88;35.57;101171.34;107228;1253;62879;-77
2022/05/26 11:41:56;;;;;;;5.80;2.00;;;;;;;24.94;35.49;101172.61;107079;1253;59027;-77
2022/05/26 11:44:44;;;;;;;2.80;1.80;;;;;;;25.41;35.11;101168.73;107356;1253;61698;-78
2022/05/26 11:47:48;;;;;;;2.70;1.90;;;;;;;25.56;34.80;101165.02;107260;1253;73235;-76
2022/05/26 11:50:44;;;;;;;13.80;2.30;;;;;;;25.99;34.62;101161.04;107078;1253;72186;-77
2022/05/26 11:53:36;;;;;;;3.10;1.90;;;;;;;26.35;32.51;101158.76;107179;1253;71435;-79
2022/05/26 11:56:24;;;;;;;3.30;2.00;;;;;;;26.95;31.64;101161.65;107194;1253;62952;-80
2022/05/26 11:59:20;;;;;;;4.10;1.70;;;;;;;26.63;31.32;101159.38;107182;1252;59173;-77
2022/05/26 12:01:59;;;;;;;5.30;1.80;;;;;;;26.31;31.75;101153.27;107343;1252;59002;-81
2022/05/26 12:04:32;;;;;;;4.50;1.80;;;;;;;26.21;32.16;101154.11;107041;1253;73585;-81
2022/05/26 12:07:22;;;;;;;2.70;1.80;;;;;;;26.62;31.73;101147.30;107153;1253;63116;-79
2022/05/26 12:09:59;;;;;;;5.40;1.90;;;;;;;26.63;31.64;101153.70;107088;1253;68888;-80
2022/05/26 12:12:34;;;;;;;23.00;5.80;;;;;;;26.96;30.94;101154.02;107029;1253;63653;-80
2022/05/26 12:15:18;;;;;;;23.60;3.80;;;;;;;27.08;30.97;101144.36;107259;1251;58851;-81
2022/05/26 12:17:53;;;;;;;79.00;13.40;;;;;;;26.82;31.02;101142.06;107090;1253;61308;-80
2022/05/26 12:20:21;;;;;;;22.10;3.60;;;;;;;26.96;30.97;101141.39;107160;1253;74194;-79
2022/05/26 12:22:50;;;;;;;4.40;1.70;;;;;;;27.05;31.20;101146.80;107172;1253;61259;-82
2022/05/26 12:25:31;;;;;;;6.50;2.10;;;;;;;27.38;30.16;101144.02;107135;1253;71544;-80
2022/05/26 12:28:31;;;;;;;3.60;2.00;;;;;;;27.69;29.07;101143.66;107334;1252;73683;-78
2022/05/26 12:31:05;;;;;;;4.30;2.10;;;;;;;27.29;29.59;101145.19;107146;1253;59129;-81
2022/05/26 12:33:50;;;;;;;3.20;2.10;;;;;;;27.47;29.04;101146.64;107220;1253;60507;-79
2022/05/26 12:36:53;;;;;;;2.80;1.60;;;;;;;27.26;29.53;101141.88;107262;1252;63433;-79
2022/05/26 12:39:55;;;;;;;2.40;1.90;;;;;;;27.55;28.58;101150.23;107217;1253;62115;-79
2022/05/26 12:42:50;;;;;;;3.70;2.10;;;;;;;27.60;28.12;101137.22;107198;1253;59049;-79
2022/05/26 12:45:42;;;;;;;3.00;1.80;;;;;;;27.76;28.24;101135.86;107353;1250;74094;-79